sensor_id;sensor_type;location;lat;lon;timestamp;temperature;humidity
698;DHT22;331;48.414;9.938;2022-10-16T00:01:45;15.20;99.90
698;DHT22;331;48.414;9.938;2022-10-16T00:04:14;15.20;99.90
698;DHT22;331;48.414;9.938;2022-10-16T00:06:40;15.20;99.90
698;DHT22;331;48.414;9.938;2022-10-16T00:09:08;15.20;99.90
698;DHT22;331;48.414;9.938;2022-10-16T00:11:35;15.20;99.90
698;DHT22;331;48.414;9.938;2022-10-16T00:14:03;15.20;99.90
698;DHT22;331;48.414;9.938;2022-10-16T00:16:31;15.20;99.90
698;DHT22;331;48.414;9.938;2022-10-16T00:18:58;15.20;99.90
698;DHT22;331;48.414;9.938;2022-10-16T00:21:27;15.20;99.90
698;DHT22;331;48.414;9.938;2022-10-16T00:23:55;15.20;99.90
698;DHT22;331;48.414;9.938;2022-10-16T00:26:22;15.20;99.90
698;DHT22;331;48.414;9.938;2022-10-16T00:28:49;15.20;99.90
698;DHT22;331;48.414;9.938;2022-10-16T00:31:17;15.20;99.90
698;DHT22;331;48.414;9.938;2022-10-16T00:33:44;15.20;99.90
698;DHT22;331;48.414;9.938;2022-10-16T00:36:11;15.10;99.90
698;DHT22;331;48.414;9.938;2022-10-16T00:38:39;15.10;99.90
698;DHT22;331;48.414;9.938;2022-10-16T00:41:06;15.10;99.90
698;DHT22;331;48.414;9.938;2022-10-16T00:43:35;15.10;99.90
698;DHT22;331;48.414;9.938;2022-10-16T00:46:04;15.10;99.90
698;DHT22;331;48.414;9.938;2022-10-16T00:48:32;15.10;99.90
698;DHT22;331;48.414;9.938;2022-10-16T00:50:59;15.10;99.90
698;DHT22;331;48.414;9.938;2022-10-16T00:53:25;15.10;99.90
698;DHT22;331;48.414;9.938;2022-10-16T00:55:55;15.10;99.90
698;DHT22;331;48.414;9.938;2022-10-16T00:58:22;15.10;99.90
698;DHT22;331;48.414;9.938;2022-10-16T01:00:48;15.10;99.90
698;DHT22;331;48.414;9.938;2022-10-16T01:03:26;15.10;99.90
698;DHT22;331;48.414;9.938;2022-10-16T01:05:55;15.00;99.90
698;DHT22;331;48.414;9.938;2022-10-16T01:08:25;15.00;99.90
698;DHT22;331;48.414;9.938;2022-10-16T01:10:57;15.00;99.90
698;DHT22;331;48.414;9.938;2022-10-16T01:13:24;15.00;99.90
698;DHT22;331;48.414;9.938;2022-10-16T01:15:54;15.00;99.90
698;DHT22;331;48.414;9.938;2022-10-16T01:18:24;15.00;99.90
698;DHT22;331;48.414;9.938;2022-10-16T01:20:54;15.00;99.90
698;DHT22;331;48.414;9.938;2022-10-16T01:23:27;15.00;99.90
698;DHT22;331;48.414;9.938;2022-10-16T01:28:48;15.00;99.90
698;DHT22;331;48.414;9.938;2022-10-16T01:31:17;15.00;99.90
698;DHT22;331;48.414;9.938;2022-10-16T01:33:45;15.00;99.90
698;DHT22;331;48.414;9.938;2022-10-16T01:36:13;14.90;99.90
698;DHT22;331;48.414;9.938;2022-10-16T01:38:41;14.90;99.90
698;DHT22;331;48.414;9.938;2022-10-16T01:41:10;14.90;99.90
698;DHT22;331;48.414;9.938;2022-10-16T01:43:39;14.90;99.90
698;DHT22;331;48.414;9.938;2022-10-16T01:46:08;14.90;99.90
698;DHT22;331;48.414;9.938;2022-10-16T01:48:36;14.90;99.90
698;DHT22;331;48.414;9.938;2022-10-16T01:51:05;14.90;99.90
698;DHT22;331;48.414;9.938;2022-10-16T01:53:32;14.90;99.90
698;DHT22;331;48.414;9.938;2022-10-16T01:56:03;14.90;99.90
698;DHT22;331;48.414;9.938;2022-10-16T01:58:32;14.90;99.90
698;DHT22;331;48.414;9.938;2022-10-16T02:01:00;14.80;99.90
698;DHT22;331;48.414;9.938;2022-10-16T02:03:29;14.80;99.90
698;DHT22;331;48.414;9.938;2022-10-16T02:05:56;14.80;99.90
698;DHT22;331;48.414;9.938;2022-10-16T02:08:25;14.80;99.90
698;DHT22;331;48.414;9.938;2022-10-16T02:10:54;14.80;99.90
698;DHT22;331;48.414;9.938;2022-10-16T02:13:22;14.80;99.90
698;DHT22;331;48.414;9.938;2022-10-16T02:15:50;14.80;99.90
698;DHT22;331;48.414;9.938;2022-10-16T02:18:20;14.80;99.90
698;DHT22;331;48.414;9.938;2022-10-16T02:20:50;14.80;99.90
698;DHT22;331;48.414;9.938;2022-10-16T02:23:20;14.80;99.90
698;DHT22;331;48.414;9.938;2022-10-16T02:25:50;14.80;99.90
698;DHT22;331;48.414;9.938;2022-10-16T02:28:19;14.70;99.90
698;DHT22;331;48.414;9.938;2022-10-16T02:30:49;14.80;99.90
698;DHT22;331;48.414;9.938;2022-10-16T02:33:17;14.70;99.90
698;DHT22;331;48.414;9.938;2022-10-16T02:35:46;14.70;99.90
698;DHT22;331;48.414;9.938;2022-10-16T02:38:15;14.70;99.90
698;DHT22;331;48.414;9.938;2022-10-16T02:40:42;14.70;99.90
698;DHT22;331;48.414;9.938;2022-10-16T02:43:09;14.70;99.90
698;DHT22;331;48.414;9.938;2022-10-16T02:45:37;14.70;99.90
698;DHT22;331;48.414;9.938;2022-10-16T02:48:04;14.70;99.90
698;DHT22;331;48.414;9.938;2022-10-16T02:50:31;14.70;99.90
698;DHT22;331;48.414;9.938;2022-10-16T02:52:57;14.70;99.90
698;DHT22;331;48.414;9.938;2022-10-16T02:55:26;14.70;99.90
698;DHT22;331;48.414;9.938;2022-10-16T02:57:53;14.70;99.90
698;DHT22;331;48.414;9.938;2022-10-16T03:00:20;14.70;99.90
698;DHT22;331;48.414;9.938;2022-10-16T03:02:47;14.70;99.90
698;DHT22;331;48.414;9.938;2022-10-16T03:05:14;14.70;99.90
698;DHT22;331;48.414;9.938;2022-10-16T03:07:41;14.70;99.90
698;DHT22;331;48.414;9.938;2022-10-16T03:10:08;14.70;99.90
698;DHT22;331;48.414;9.938;2022-10-16T03:12:37;14.60;99.90
698;DHT22;331;48.414;9.938;2022-10-16T03:15:04;14.60;99.90
698;DHT22;331;48.414;9.938;2022-10-16T03:17:32;14.60;99.90
698;DHT22;331;48.414;9.938;2022-10-16T03:20:00;14.60;99.90
698;DHT22;331;48.414;9.938;2022-10-16T03:22:27;14.60;99.90
698;DHT22;331;48.414;9.938;2022-10-16T03:24:54;14.60;99.90
698;DHT22;331;48.414;9.938;2022-10-16T03:27:20;14.60;99.90
698;DHT22;331;48.414;9.938;2022-10-16T03:29:48;14.60;99.90
698;DHT22;331;48.414;9.938;2022-10-16T03:32:15;14.60;99.90
698;DHT22;331;48.414;9.938;2022-10-16T03:34:42;14.60;99.90
698;DHT22;331;48.414;9.938;2022-10-16T03:37:09;14.60;99.90
698;DHT22;331;48.414;9.938;2022-10-16T03:39:36;14.60;99.90
698;DHT22;331;48.414;9.938;2022-10-16T03:42:02;14.60;99.90
698;DHT22;331;48.414;9.938;2022-10-16T03:44:29;14.60;99.90
698;DHT22;331;48.414;9.938;2022-10-16T03:46:57;14.50;99.90
698;DHT22;331;48.414;9.938;2022-10-16T03:49:24;14.50;99.90
698;DHT22;331;48.414;9.938;2022-10-16T03:51:51;14.50;99.90
698;DHT22;331;48.414;9.938;2022-10-16T03:54:18;14.50;99.90
698;DHT22;331;48.414;9.938;2022-10-16T03:56:44;14.50;99.90
698;DHT22;331;48.414;9.938;2022-10-16T03:59:11;14.50;99.90
698;DHT22;331;48.414;9.938;2022-10-16T04:01:38;14.60;99.90
698;DHT22;331;48.414;9.938;2022-10-16T04:04:06;14.50;99.90
698;DHT22;331;48.414;9.938;2022-10-16T04:06:33;14.50;99.90
698;DHT22;331;48.414;9.938;2022-10-16T04:09:00;14.50;99.90
698;DHT22;331;48.414;9.938;2022-10-16T04:11:26;14.50;99.90
698;DHT22;331;48.414;9.938;2022-10-16T04:13:53;14.50;99.90
698;DHT22;331;48.414;9.938;2022-10-16T04:16:20;14.50;99.90
698;DHT22;331;48.414;9.938;2022-10-16T04:18:47;14.50;99.90
698;DHT22;331;48.414;9.938;2022-10-16T04:21:15;14.50;99.90
698;DHT22;331;48.414;9.938;2022-10-16T04:23:42;14.50;99.90
698;DHT22;331;48.414;9.938;2022-10-16T04:26:09;14.40;99.90
698;DHT22;331;48.414;9.938;2022-10-16T04:28:35;14.50;99.90
698;DHT22;331;48.414;9.938;2022-10-16T04:31:03;14.40;99.90
698;DHT22;331;48.414;9.938;2022-10-16T04:33:30;14.40;99.90
698;DHT22;331;48.414;9.938;2022-10-16T04:35:57;14.40;99.90
698;DHT22;331;48.414;9.938;2022-10-16T04:38:25;14.40;99.90
698;DHT22;331;48.414;9.938;2022-10-16T04:40:52;14.40;99.90
698;DHT22;331;48.414;9.938;2022-10-16T04:43:19;14.40;99.90
698;DHT22;331;48.414;9.938;2022-10-16T04:45:46;14.40;99.90
698;DHT22;331;48.414;9.938;2022-10-16T04:48:12;14.40;99.90
698;DHT22;331;48.414;9.938;2022-10-16T04:50:39;14.40;99.90
698;DHT22;331;48.414;9.938;2022-10-16T04:53:06;14.40;99.90
698;DHT22;331;48.414;9.938;2022-10-16T04:55:34;14.40;99.90
698;DHT22;331;48.414;9.938;2022-10-16T04:58:01;14.30;99.90
698;DHT22;331;48.414;9.938;2022-10-16T05:00:28;14.40;99.90
698;DHT22;331;48.414;9.938;2022-10-16T05:02:55;14.30;99.90
698;DHT22;331;48.414;9.938;2022-10-16T05:05:22;14.30;99.90
698;DHT22;331;48.414;9.938;2022-10-16T05:07:49;14.30;99.90
698;DHT22;331;48.414;9.938;2022-10-16T05:10:16;14.30;99.90
698;DHT22;331;48.414;9.938;2022-10-16T05:12:44;14.30;99.90
698;DHT22;331;48.414;9.938;2022-10-16T05:15:11;14.30;99.90
698;DHT22;331;48.414;9.938;2022-10-16T05:17:37;14.30;99.90
698;DHT22;331;48.414;9.938;2022-10-16T05:20:05;14.30;99.90
698;DHT22;331;48.414;9.938;2022-10-16T05:22:32;14.30;99.90
698;DHT22;331;48.414;9.938;2022-10-16T05:24:58;14.30;99.90
698;DHT22;331;48.414;9.938;2022-10-16T05:27:25;14.30;99.90
698;DHT22;331;48.414;9.938;2022-10-16T05:29:53;14.30;99.90
698;DHT22;331;48.414;9.938;2022-10-16T05:32:20;14.30;99.90
698;DHT22;331;48.414;9.938;2022-10-16T05:34:47;14.20;99.90
698;DHT22;331;48.414;9.938;2022-10-16T05:37:14;14.20;99.90
698;DHT22;331;48.414;9.938;2022-10-16T05:39:41;14.20;99.90
698;DHT22;331;48.414;9.938;2022-10-16T05:42:07;14.20;99.90
698;DHT22;331;48.414;9.938;2022-10-16T05:44:34;14.20;99.90
698;DHT22;331;48.414;9.938;2022-10-16T05:47:02;14.20;99.90
698;DHT22;331;48.414;9.938;2022-10-16T05:49:29;14.20;99.90
698;DHT22;331;48.414;9.938;2022-10-16T05:51:56;14.20;99.90
698;DHT22;331;48.414;9.938;2022-10-16T05:54:23;14.20;99.90
698;DHT22;331;48.414;9.938;2022-10-16T05:56:49;14.20;99.90
698;DHT22;331;48.414;9.938;2022-10-16T05:59:16;14.20;99.90
698;DHT22;331;48.414;9.938;2022-10-16T06:01:43;14.20;99.90
698;DHT22;331;48.414;9.938;2022-10-16T06:04:11;14.20;99.90
698;DHT22;331;48.414;9.938;2022-10-16T06:06:38;14.20;99.90
698;DHT22;331;48.414;9.938;2022-10-16T06:09:05;14.10;99.90
698;DHT22;331;48.414;9.938;2022-10-16T06:11:32;14.20;99.90
698;DHT22;331;48.414;9.938;2022-10-16T06:14:00;14.10;99.90
698;DHT22;331;48.414;9.938;2022-10-16T06:16:28;14.10;99.90
698;DHT22;331;48.414;9.938;2022-10-16T06:18:55;14.10;99.90
698;DHT22;331;48.414;9.938;2022-10-16T06:21:24;14.10;99.90
698;DHT22;331;48.414;9.938;2022-10-16T06:23:51;14.10;99.90
698;DHT22;331;48.414;9.938;2022-10-16T06:26:19;14.10;99.90
698;DHT22;331;48.414;9.938;2022-10-16T06:28:46;14.10;99.90
698;DHT22;331;48.414;9.938;2022-10-16T06:31:13;14.10;99.90
698;DHT22;331;48.414;9.938;2022-10-16T06:33:40;14.10;99.90
698;DHT22;331;48.414;9.938;2022-10-16T06:36:08;14.10;99.90
698;DHT22;331;48.414;9.938;2022-10-16T06:38:37;14.10;99.90
698;DHT22;331;48.414;9.938;2022-10-16T06:41:05;14.10;99.90
698;DHT22;331;48.414;9.938;2022-10-16T06:43:32;14.10;99.90
698;DHT22;331;48.414;9.938;2022-10-16T06:46:00;14.10;99.90
698;DHT22;331;48.414;9.938;2022-10-16T06:48:28;14.10;99.90
698;DHT22;331;48.414;9.938;2022-10-16T06:50:56;14.10;99.90
698;DHT22;331;48.414;9.938;2022-10-16T06:53:26;14.10;99.90
698;DHT22;331;48.414;9.938;2022-10-16T06:55:54;14.10;99.90
698;DHT22;331;48.414;9.938;2022-10-16T06:58:21;14.00;99.90
698;DHT22;331;48.414;9.938;2022-10-16T07:00:48;14.10;99.90
698;DHT22;331;48.414;9.938;2022-10-16T07:03:15;14.00;99.90
698;DHT22;331;48.414;9.938;2022-10-16T07:05:43;14.00;99.90
698;DHT22;331;48.414;9.938;2022-10-16T07:08:09;14.00;99.90
698;DHT22;331;48.414;9.938;2022-10-16T07:10:36;14.00;99.90
698;DHT22;331;48.414;9.938;2022-10-16T07:13:04;14.00;99.90
698;DHT22;331;48.414;9.938;2022-10-16T07:15:32;14.00;99.90
698;DHT22;331;48.414;9.938;2022-10-16T07:17:59;14.00;99.90
698;DHT22;331;48.414;9.938;2022-10-16T07:20:26;14.00;99.90
698;DHT22;331;48.414;9.938;2022-10-16T07:22:53;14.00;99.90
698;DHT22;331;48.414;9.938;2022-10-16T07:25:20;14.00;99.90
698;DHT22;331;48.414;9.938;2022-10-16T07:27:47;14.00;99.90
698;DHT22;331;48.414;9.938;2022-10-16T07:30:15;14.00;99.90
698;DHT22;331;48.414;9.938;2022-10-16T07:32:42;14.00;99.90
698;DHT22;331;48.414;9.938;2022-10-16T07:35:09;14.00;99.90
698;DHT22;331;48.414;9.938;2022-10-16T07:37:36;14.00;99.90
698;DHT22;331;48.414;9.938;2022-10-16T07:40:03;14.00;99.90
698;DHT22;331;48.414;9.938;2022-10-16T07:42:30;14.00;99.90
698;DHT22;331;48.414;9.938;2022-10-16T07:44:57;14.00;99.90
698;DHT22;331;48.414;9.938;2022-10-16T07:47:25;14.00;99.90
698;DHT22;331;48.414;9.938;2022-10-16T07:49:52;14.00;99.90
698;DHT22;331;48.414;9.938;2022-10-16T07:52:19;14.10;99.90
698;DHT22;331;48.414;9.938;2022-10-16T07:54:45;14.00;99.90
698;DHT22;331;48.414;9.938;2022-10-16T07:57:12;14.00;99.90
698;DHT22;331;48.414;9.938;2022-10-16T07:59:44;14.00;99.90
698;DHT22;331;48.414;9.938;2022-10-16T08:02:11;14.00;99.90
698;DHT22;331;48.414;9.938;2022-10-16T08:04:39;14.00;99.90
698;DHT22;331;48.414;9.938;2022-10-16T08:07:06;14.00;99.90
698;DHT22;331;48.414;9.938;2022-10-16T08:09:33;14.00;99.90
698;DHT22;331;48.414;9.938;2022-10-16T08:12:00;14.00;99.90
698;DHT22;331;48.414;9.938;2022-10-16T08:14:27;14.00;99.90
698;DHT22;331;48.414;9.938;2022-10-16T08:16:54;14.00;99.90
698;DHT22;331;48.414;9.938;2022-10-16T08:19:21;14.00;99.90
698;DHT22;331;48.414;9.938;2022-10-16T08:21:49;14.00;99.90
698;DHT22;331;48.414;9.938;2022-10-16T08:24:16;14.00;99.90
698;DHT22;331;48.414;9.938;2022-10-16T08:26:43;14.10;99.90
698;DHT22;331;48.414;9.938;2022-10-16T08:29:13;14.10;99.90
698;DHT22;331;48.414;9.938;2022-10-16T08:31:39;14.10;99.90
698;DHT22;331;48.414;9.938;2022-10-16T08:34:10;14.10;99.90
698;DHT22;331;48.414;9.938;2022-10-16T08:36:36;14.10;99.90
698;DHT22;331;48.414;9.938;2022-10-16T08:39:05;14.10;99.90
698;DHT22;331;48.414;9.938;2022-10-16T08:41:36;14.10;99.90
698;DHT22;331;48.414;9.938;2022-10-16T08:44:11;14.10;99.90
698;DHT22;331;48.414;9.938;2022-10-16T08:46:43;14.00;99.90
698;DHT22;331;48.414;9.938;2022-10-16T08:49:12;14.10;99.90
698;DHT22;331;48.414;9.938;2022-10-16T08:51:39;14.10;99.90
698;DHT22;331;48.414;9.938;2022-10-16T08:54:11;14.10;99.90
698;DHT22;331;48.414;9.938;2022-10-16T08:56:42;14.10;99.90
698;DHT22;331;48.414;9.938;2022-10-16T08:59:10;14.10;99.90
698;DHT22;331;48.414;9.938;2022-10-16T09:01:38;14.20;99.90
698;DHT22;331;48.414;9.938;2022-10-16T09:04:30;14.10;99.90
698;DHT22;331;48.414;9.938;2022-10-16T09:06:58;14.10;99.90
698;DHT22;331;48.414;9.938;2022-10-16T09:09:34;14.10;99.90
698;DHT22;331;48.414;9.938;2022-10-16T09:12:04;14.10;99.90
698;DHT22;331;48.414;9.938;2022-10-16T09:14:38;14.10;99.90
698;DHT22;331;48.414;9.938;2022-10-16T09:17:13;14.20;99.90
698;DHT22;331;48.414;9.938;2022-10-16T09:19:44;14.20;99.90
698;DHT22;331;48.414;9.938;2022-10-16T09:22:13;14.20;99.90
698;DHT22;331;48.414;9.938;2022-10-16T09:24:42;14.20;99.90
698;DHT22;331;48.414;9.938;2022-10-16T09:27:09;14.20;99.90
698;DHT22;331;48.414;9.938;2022-10-16T09:29:36;14.20;99.90
698;DHT22;331;48.414;9.938;2022-10-16T09:32:07;14.20;99.90
698;DHT22;331;48.414;9.938;2022-10-16T09:34:35;14.30;99.90
698;DHT22;331;48.414;9.938;2022-10-16T09:37:04;14.30;99.90
698;DHT22;331;48.414;9.938;2022-10-16T09:39:43;14.30;99.90
698;DHT22;331;48.414;9.938;2022-10-16T09:42:10;14.30;99.90
698;DHT22;331;48.414;9.938;2022-10-16T09:44:38;14.30;99.90
698;DHT22;331;48.414;9.938;2022-10-16T09:47:10;14.30;99.90
698;DHT22;331;48.414;9.938;2022-10-16T09:49:38;14.30;99.90
698;DHT22;331;48.414;9.938;2022-10-16T09:52:05;14.30;99.90
698;DHT22;331;48.414;9.938;2022-10-16T09:54:35;14.30;99.90
698;DHT22;331;48.414;9.938;2022-10-16T09:57:07;14.40;99.90
698;DHT22;331;48.414;9.938;2022-10-16T09:59:34;14.40;99.90
698;DHT22;331;48.414;9.938;2022-10-16T10:02:11;14.40;99.90
698;DHT22;331;48.414;9.938;2022-10-16T10:04:41;14.40;99.90
698;DHT22;331;48.414;9.938;2022-10-16T10:07:16;14.40;99.90
698;DHT22;331;48.414;9.938;2022-10-16T10:09:44;14.50;99.90
698;DHT22;331;48.414;9.938;2022-10-16T10:12:17;14.50;99.90
698;DHT22;331;48.414;9.938;2022-10-16T10:14:46;14.50;99.90
698;DHT22;331;48.414;9.938;2022-10-16T10:17:15;14.50;99.90
698;DHT22;331;48.414;9.938;2022-10-16T10:19:44;14.50;99.90
698;DHT22;331;48.414;9.938;2022-10-16T10:22:13;14.50;99.90
698;DHT22;331;48.414;9.938;2022-10-16T10:24:43;14.60;99.90
698;DHT22;331;48.414;9.938;2022-10-16T10:27:10;14.60;99.90
698;DHT22;331;48.414;9.938;2022-10-16T10:29:45;14.60;99.90
698;DHT22;331;48.414;9.938;2022-10-16T10:32:18;14.60;99.90
698;DHT22;331;48.414;9.938;2022-10-16T10:34:52;14.70;99.90
698;DHT22;331;48.414;9.938;2022-10-16T10:37:27;14.70;99.90
698;DHT22;331;48.414;9.938;2022-10-16T10:39:57;14.70;99.90
698;DHT22;331;48.414;9.938;2022-10-16T10:42:28;14.70;99.90
698;DHT22;331;48.414;9.938;2022-10-16T10:45:08;14.70;99.90
698;DHT22;331;48.414;9.938;2022-10-16T10:47:41;14.80;99.90
698;DHT22;331;48.414;9.938;2022-10-16T10:50:14;14.80;99.90
698;DHT22;331;48.414;9.938;2022-10-16T10:52:48;14.80;99.90
698;DHT22;331;48.414;9.938;2022-10-16T10:55:20;14.90;99.90
698;DHT22;331;48.414;9.938;2022-10-16T10:57:54;14.80;99.90
698;DHT22;331;48.414;9.938;2022-10-16T11:00:25;14.90;99.90
698;DHT22;331;48.414;9.938;2022-10-16T11:02:54;14.90;99.90
698;DHT22;331;48.414;9.938;2022-10-16T11:08:12;14.90;99.90
698;DHT22;331;48.414;9.938;2022-10-16T11:10:43;15.00;99.90
698;DHT22;331;48.414;9.938;2022-10-16T11:13:15;15.00;99.90
698;DHT22;331;48.414;9.938;2022-10-16T11:15:44;15.00;99.90
698;DHT22;331;48.414;9.938;2022-10-16T11:18:15;15.10;99.90
698;DHT22;331;48.414;9.938;2022-10-16T11:20:45;15.20;99.90
698;DHT22;331;48.414;9.938;2022-10-16T11:23:14;15.20;99.90
698;DHT22;331;48.414;9.938;2022-10-16T11:25:42;15.20;99.90
698;DHT22;331;48.414;9.938;2022-10-16T11:28:11;15.30;99.90
698;DHT22;331;48.414;9.938;2022-10-16T11:30:40;15.50;99.90
698;DHT22;331;48.414;9.938;2022-10-16T11:33:14;15.80;99.90
698;DHT22;331;48.414;9.938;2022-10-16T11:35:47;15.90;99.90
698;DHT22;331;48.414;9.938;2022-10-16T11:38:18;16.00;99.90
698;DHT22;331;48.414;9.938;2022-10-16T11:40:50;16.10;99.90
698;DHT22;331;48.414;9.938;2022-10-16T11:43:21;16.30;99.90
698;DHT22;331;48.414;9.938;2022-10-16T11:45:49;16.40;99.90
698;DHT22;331;48.414;9.938;2022-10-16T11:48:20;16.60;99.90
698;DHT22;331;48.414;9.938;2022-10-16T11:50:50;16.60;99.90
698;DHT22;331;48.414;9.938;2022-10-16T11:53:21;16.60;99.90
698;DHT22;331;48.414;9.938;2022-10-16T11:55:50;16.70;99.90
698;DHT22;331;48.414;9.938;2022-10-16T11:58:20;16.70;99.90
698;DHT22;331;48.414;9.938;2022-10-16T12:00:52;16.80;99.90
698;DHT22;331;48.414;9.938;2022-10-16T12:03:22;17.00;99.90
698;DHT22;331;48.414;9.938;2022-10-16T12:05:54;17.10;99.90
698;DHT22;331;48.414;9.938;2022-10-16T12:08:22;17.20;99.90
698;DHT22;331;48.414;9.938;2022-10-16T12:10:48;17.40;99.90
698;DHT22;331;48.414;9.938;2022-10-16T12:13:29;17.20;99.90
698;DHT22;331;48.414;9.938;2022-10-16T12:18:45;17.00;99.90
698;DHT22;331;48.414;9.938;2022-10-16T12:21:13;16.90;99.90
698;DHT22;331;48.414;9.938;2022-10-16T12:23:46;16.80;99.90
698;DHT22;331;48.414;9.938;2022-10-16T12:26:22;16.80;99.90
698;DHT22;331;48.414;9.938;2022-10-16T12:28:53;16.80;99.90
698;DHT22;331;48.414;9.938;2022-10-16T12:31:20;16.80;99.90
698;DHT22;331;48.414;9.938;2022-10-16T12:33:57;16.70;99.90
698;DHT22;331;48.414;9.938;2022-10-16T12:36:28;16.70;99.90
698;DHT22;331;48.414;9.938;2022-10-16T12:38:56;16.70;99.90
698;DHT22;331;48.414;9.938;2022-10-16T12:41:24;16.80;99.90
698;DHT22;331;48.414;9.938;2022-10-16T12:43:51;16.70;99.90
698;DHT22;331;48.414;9.938;2022-10-16T12:46:22;16.80;99.90
698;DHT22;331;48.414;9.938;2022-10-16T12:48:49;16.80;99.90
698;DHT22;331;48.414;9.938;2022-10-16T12:51:24;16.80;99.90
698;DHT22;331;48.414;9.938;2022-10-16T12:53:58;16.80;99.90
698;DHT22;331;48.414;9.938;2022-10-16T12:56:27;16.80;99.90
698;DHT22;331;48.414;9.938;2022-10-16T12:59:01;16.80;99.90
698;DHT22;331;48.414;9.938;2022-10-16T13:01:34;16.80;99.90
698;DHT22;331;48.414;9.938;2022-10-16T13:04:05;16.80;99.90
698;DHT22;331;48.414;9.938;2022-10-16T13:06:39;16.90;99.90
698;DHT22;331;48.414;9.938;2022-10-16T13:09:18;16.90;99.90
698;DHT22;331;48.414;9.938;2022-10-16T13:11:52;16.90;99.90
698;DHT22;331;48.414;9.938;2022-10-16T13:14:33;16.90;99.90
698;DHT22;331;48.414;9.938;2022-10-16T13:17:04;16.90;99.90
698;DHT22;331;48.414;9.938;2022-10-16T13:19:33;17.00;99.90
698;DHT22;331;48.414;9.938;2022-10-16T13:22:05;17.00;99.90
698;DHT22;331;48.414;9.938;2022-10-16T13:24:42;17.00;99.90
698;DHT22;331;48.414;9.938;2022-10-16T13:27:12;17.00;99.90
698;DHT22;331;48.414;9.938;2022-10-16T13:29:41;17.10;99.90
698;DHT22;331;48.414;9.938;2022-10-16T13:32:09;17.00;99.90
698;DHT22;331;48.414;9.938;2022-10-16T13:34:43;17.10;99.90
698;DHT22;331;48.414;9.938;2022-10-16T13:37:17;17.10;99.90
698;DHT22;331;48.414;9.938;2022-10-16T13:39:45;17.10;99.90
698;DHT22;331;48.414;9.938;2022-10-16T13:42:12;17.20;99.90
698;DHT22;331;48.414;9.938;2022-10-16T13:44:41;17.20;99.90
698;DHT22;331;48.414;9.938;2022-10-16T13:47:16;17.20;99.90
698;DHT22;331;48.414;9.938;2022-10-16T13:49:43;17.30;99.90
698;DHT22;331;48.414;9.938;2022-10-16T13:52:15;17.30;99.90
698;DHT22;331;48.414;9.938;2022-10-16T13:54:45;17.30;99.90
698;DHT22;331;48.414;9.938;2022-10-16T13:57:13;17.30;99.90
698;DHT22;331;48.414;9.938;2022-10-16T13:59:40;17.30;99.90
698;DHT22;331;48.414;9.938;2022-10-16T14:02:09;17.40;99.90
698;DHT22;331;48.414;9.938;2022-10-16T14:04:40;17.40;99.90
698;DHT22;331;48.414;9.938;2022-10-16T14:07:12;17.40;99.90
698;DHT22;331;48.414;9.938;2022-10-16T14:09:39;17.40;99.90
698;DHT22;331;48.414;9.938;2022-10-16T14:12:09;17.50;99.90
698;DHT22;331;48.414;9.938;2022-10-16T14:14:40;17.50;99.90
698;DHT22;331;48.414;9.938;2022-10-16T14:17:13;17.50;99.90
698;DHT22;331;48.414;9.938;2022-10-16T14:19:40;17.50;99.90
698;DHT22;331;48.414;9.938;2022-10-16T14:22:15;17.50;99.90
698;DHT22;331;48.414;9.938;2022-10-16T14:24:47;17.60;99.90
698;DHT22;331;48.414;9.938;2022-10-16T14:27:23;17.60;99.90
698;DHT22;331;48.414;9.938;2022-10-16T14:30:01;17.60;99.90
698;DHT22;331;48.414;9.938;2022-10-16T14:32:28;17.60;99.90
698;DHT22;331;48.414;9.938;2022-10-16T14:34:54;17.60;99.90
698;DHT22;331;48.414;9.938;2022-10-16T14:37:23;17.70;99.90
698;DHT22;331;48.414;9.938;2022-10-16T14:39:51;17.70;99.90
698;DHT22;331;48.414;9.938;2022-10-16T14:42:18;17.70;99.90
698;DHT22;331;48.414;9.938;2022-10-16T14:44:47;17.70;99.90
698;DHT22;331;48.414;9.938;2022-10-16T14:47:16;17.70;99.90
698;DHT22;331;48.414;9.938;2022-10-16T14:49:47;17.70;99.90
698;DHT22;331;48.414;9.938;2022-10-16T14:52:14;17.80;99.90
698;DHT22;331;48.414;9.938;2022-10-16T14:54:41;17.80;99.90
698;DHT22;331;48.414;9.938;2022-10-16T14:59:36;17.80;99.90
698;DHT22;331;48.414;9.938;2022-10-16T15:02:11;17.80;99.90
698;DHT22;331;48.414;9.938;2022-10-16T15:04:42;17.90;99.90
698;DHT22;331;48.414;9.938;2022-10-16T15:07:09;17.80;99.90
698;DHT22;331;48.414;9.938;2022-10-16T15:09:35;17.90;99.90
698;DHT22;331;48.414;9.938;2022-10-16T15:12:03;17.90;99.90
698;DHT22;331;48.414;9.938;2022-10-16T15:14:29;17.90;99.90
698;DHT22;331;48.414;9.938;2022-10-16T15:19:25;17.90;99.90
698;DHT22;331;48.414;9.938;2022-10-16T15:21:52;17.90;99.90
698;DHT22;331;48.414;9.938;2022-10-16T15:24:19;18.00;99.90
698;DHT22;331;48.414;9.938;2022-10-16T15:26:45;18.00;99.90
698;DHT22;331;48.414;9.938;2022-10-16T15:29:12;18.00;99.90
698;DHT22;331;48.414;9.938;2022-10-16T15:31:39;18.00;99.90
698;DHT22;331;48.414;9.938;2022-10-16T15:34:08;18.00;99.90
698;DHT22;331;48.414;9.938;2022-10-16T15:36:36;18.00;99.90
698;DHT22;331;48.414;9.938;2022-10-16T15:39:04;18.00;99.90
698;DHT22;331;48.414;9.938;2022-10-16T15:41:32;18.00;99.90
698;DHT22;331;48.414;9.938;2022-10-16T15:43:59;18.00;99.90
698;DHT22;331;48.414;9.938;2022-10-16T15:46:26;18.00;99.90
698;DHT22;331;48.414;9.938;2022-10-16T15:48:56;18.00;99.90
698;DHT22;331;48.414;9.938;2022-10-16T15:51:23;18.10;99.90
698;DHT22;331;48.414;9.938;2022-10-16T15:53:51;18.10;99.90
698;DHT22;331;48.414;9.938;2022-10-16T15:56:19;18.10;99.90
698;DHT22;331;48.414;9.938;2022-10-16T15:58:47;18.10;99.90
698;DHT22;331;48.414;9.938;2022-10-16T16:01:14;18.10;99.90
698;DHT22;331;48.414;9.938;2022-10-16T16:03:42;18.10;99.90
698;DHT22;331;48.414;9.938;2022-10-16T16:06:11;18.10;99.90
698;DHT22;331;48.414;9.938;2022-10-16T16:08:38;18.10;99.90
698;DHT22;331;48.414;9.938;2022-10-16T16:11:07;18.10;99.90
698;DHT22;331;48.414;9.938;2022-10-16T16:13:34;18.10;99.90
698;DHT22;331;48.414;9.938;2022-10-16T16:16:04;18.10;99.90
698;DHT22;331;48.414;9.938;2022-10-16T16:18:32;18.10;99.90
698;DHT22;331;48.414;9.938;2022-10-16T16:21:00;18.10;99.90
698;DHT22;331;48.414;9.938;2022-10-16T16:23:27;18.10;99.90
698;DHT22;331;48.414;9.938;2022-10-16T16:26:04;18.10;99.90
698;DHT22;331;48.414;9.938;2022-10-16T16:28:32;18.10;99.90
698;DHT22;331;48.414;9.938;2022-10-16T16:30:59;18.10;99.90
698;DHT22;331;48.414;9.938;2022-10-16T16:33:26;18.10;99.90
698;DHT22;331;48.414;9.938;2022-10-16T16:35:55;18.10;99.90
698;DHT22;331;48.414;9.938;2022-10-16T16:38:22;18.10;99.90
698;DHT22;331;48.414;9.938;2022-10-16T16:40:49;18.10;99.90
698;DHT22;331;48.414;9.938;2022-10-16T16:43:17;18.00;99.90
698;DHT22;331;48.414;9.938;2022-10-16T16:45:45;18.00;99.90
698;DHT22;331;48.414;9.938;2022-10-16T16:48:12;18.00;99.90
698;DHT22;331;48.414;9.938;2022-10-16T16:50:39;18.00;99.90
698;DHT22;331;48.414;9.938;2022-10-16T16:53:06;18.00;99.90
698;DHT22;331;48.414;9.938;2022-10-16T16:55:32;18.00;99.90
698;DHT22;331;48.414;9.938;2022-10-16T16:57:59;18.00;99.90